createdAt,value
2022-11-13T00:00:56.558Z,79.72
2022-11-13T00:03:22.956Z,79.28
2022-11-13T00:05:49.363Z,79.75
2022-11-13T00:08:15.794Z,79.21
2022-11-13T00:10:42.213Z,79.59
2022-11-13T00:13:08.604Z,80.25
2022-11-13T00:15:35.036Z,80.30
2022-11-13T00:18:01.431Z,79.67
2022-11-13T00:20:27.945Z,80.10
2022-11-13T00:22:54.350Z,80.08
2022-11-13T00:25:20.769Z,80.31
2022-11-13T00:27:47.187Z,80.12
2022-11-13T00:30:18.889Z,80.09
2022-11-13T00:32:45.796Z,80.04
2022-11-13T00:35:12.200Z,80.42
2022-11-13T00:37:38.626Z,80.11
2022-11-13T00:40:05.015Z,80.39
2022-11-13T00:42:31.457Z,81.46
2022-11-13T00:44:57.850Z,80.67
2022-11-13T00:47:24.293Z,80.72
2022-11-13T00:49:50.711Z,80.67
2022-11-13T00:52:17.135Z,80.23
2022-11-13T00:54:43.634Z,80.49
2022-11-13T00:57:10.035Z,80.79
2022-11-13T00:59:36.450Z,80.69
2022-11-13T01:02:02.944Z,80.84
2022-11-13T01:04:29.473Z,81.10
2022-11-13T01:06:55.948Z,81.05
2022-11-13T01:09:22.411Z,81.03
2022-11-13T01:11:48.808Z,80.83
2022-11-13T01:14:15.222Z,80.98
2022-11-13T01:16:41.634Z,80.83
2022-11-13T01:19:08.047Z,80.88
2022-11-13T01:21:34.489Z,81.00
2022-11-13T01:24:00.910Z,81.06
2022-11-13T01:26:27.427Z,80.92
2022-11-13T01:28:53.846Z,80.88
2022-11-13T01:31:20.291Z,80.56
2022-11-13T01:33:46.716Z,81.06
2022-11-13T01:36:13.159Z,81.30
2022-11-13T01:38:39.577Z,81.01
2022-11-13T01:41:05.998Z,81.21
2022-11-13T01:43:32.411Z,80.87
2022-11-13T01:45:59.977Z,80.94
2022-11-13T01:48:27.861Z,81.22
2022-11-13T01:50:54.497Z,81.29
2022-11-13T01:53:20.909Z,81.24
2022-11-13T01:55:47.349Z,80.36
2022-11-13T01:58:13.929Z,80.60
2022-11-13T02:00:41.503Z,80.71
2022-11-13T02:03:08.111Z,80.94
2022-11-13T02:05:34.526Z,80.97
2022-11-13T02:08:00.980Z,81.02
2022-11-13T02:10:27.405Z,81.29
2022-11-13T02:12:53.833Z,81.21
2022-11-13T02:15:20.222Z,80.93
2022-11-13T02:17:46.638Z,80.96
2022-11-13T02:20:13.043Z,81.04
2022-11-13T02:22:39.500Z,81.00
2022-11-13T02:25:05.911Z,81.15
2022-11-13T02:27:32.982Z,81.22
2022-11-13T02:29:59.576Z,81.21
2022-11-13T02:32:25.981Z,81.09
2022-11-13T02:34:52.387Z,80.94
2022-11-13T02:37:18.832Z,80.84
2022-11-13T02:39:45.229Z,80.94
2022-11-13T02:42:11.620Z,80.67
2022-11-13T02:44:38.011Z,80.43
2022-11-13T02:47:04.481Z,80.37
2022-11-13T02:49:30.880Z,80.40
2022-11-13T02:51:57.300Z,80.62
2022-11-13T02:54:23.744Z,79.75
2022-11-13T02:56:50.187Z,80.08
2022-11-13T02:59:16.575Z,79.63
2022-11-13T03:01:43.013Z,79.90
2022-11-13T03:04:09.429Z,79.32
2022-11-13T03:06:35.842Z,79.53
2022-11-13T03:09:02.983Z,79.20
2022-11-13T03:11:30.576Z,78.88
2022-11-13T03:13:56.998Z,79.23
2022-11-13T03:16:23.404Z,79.27
2022-11-13T03:18:49.796Z,79.66
2022-11-13T03:21:16.212Z,79.57
2022-11-13T03:23:42.645Z,79.63
2022-11-13T03:26:09.058Z,79.76
2022-11-13T03:28:35.495Z,79.19
2022-11-13T03:31:01.869Z,78.86
2022-11-13T03:33:28.285Z,78.77
2022-11-13T03:35:54.658Z,78.76
2022-11-13T03:38:21.033Z,79.53
2022-11-13T03:40:47.449Z,79.42
2022-11-13T03:43:13.849Z,79.02
2022-11-13T03:45:40.278Z,78.86
2022-11-13T03:48:06.666Z,78.34
2022-11-13T03:50:33.098Z,79.15
2022-11-13T03:52:59.487Z,79.46
2022-11-13T03:55:25.899Z,79.55
2022-11-13T03:57:52.336Z,78.93
2022-11-13T04:00:18.765Z,78.88
2022-11-13T04:02:45.137Z,78.82
2022-11-13T04:05:11.534Z,78.04
2022-11-13T04:07:37.956Z,77.72
2022-11-13T04:10:04.371Z,78.23
2022-11-13T04:12:30.762Z,78.27
2022-11-13T04:14:57.180Z,78.39
2022-11-13T04:17:23.602Z,76.67
2022-11-13T04:19:51.083Z,76.93
2022-11-13T04:22:17.504Z,77.38
2022-11-13T04:24:43.915Z,77.82
2022-11-13T04:27:10.317Z,76.65
2022-11-13T04:29:36.732Z,77.71
2022-11-13T04:32:03.124Z,78.34
2022-11-13T04:34:29.652Z,79.14
2022-11-13T04:36:57.219Z,78.75
2022-11-13T04:39:24.814Z,78.33
2022-11-13T04:41:55.412Z,78.24
2022-11-13T04:44:23.020Z,77.60
2022-11-13T04:46:51.619Z,78.19
2022-11-13T04:49:18.026Z,78.53
2022-11-13T04:51:44.423Z,78.19
2022-11-13T04:54:10.830Z,77.87
2022-11-13T04:56:37.243Z,77.03
2022-11-13T04:59:03.641Z,77.14
2022-11-13T05:01:30.105Z,76.19
2022-11-13T05:03:56.569Z,75.90
2022-11-13T05:06:22.981Z,76.25
2022-11-13T05:08:49.939Z,76.34
2022-11-13T05:11:16.538Z,76.59
2022-11-13T05:13:42.972Z,77.13
2022-11-13T05:16:09.415Z,77.16
2022-11-13T05:18:35.848Z,77.46
2022-11-13T05:21:02.275Z,76.43
2022-11-13T05:23:28.713Z,76.41
2022-11-13T05:25:55.139Z,76.06
2022-11-13T05:28:21.549Z,76.78
2022-11-13T05:30:47.978Z,76.93
2022-11-13T05:33:14.383Z,76.89
2022-11-13T05:35:40.806Z,77.44
2022-11-13T05:38:07.332Z,77.45
2022-11-13T05:40:33.746Z,77.09
2022-11-13T05:43:00.164Z,77.53
2022-11-13T05:45:26.557Z,78.10
2022-11-13T05:47:52.991Z,78.13
2022-11-13T05:50:19.382Z,77.41
2022-11-13T05:52:45.795Z,78.02
2022-11-13T05:55:12.204Z,78.17
2022-11-13T05:57:38.620Z,78.13
2022-11-13T06:00:05.004Z,78.03
2022-11-13T06:02:31.408Z,77.28
2022-11-13T06:04:57.812Z,77.61
2022-11-13T06:07:24.282Z,77.65
2022-11-13T06:09:50.693Z,78.02
2022-11-13T06:12:17.086Z,77.75
2022-11-13T06:14:43.531Z,77.57
2022-11-13T06:17:09.945Z,77.30
2022-11-13T06:19:36.359Z,77.86
2022-11-13T06:22:02.772Z,77.55
2022-11-13T06:24:29.177Z,77.30
2022-11-13T06:26:55.577Z,77.34
2022-11-13T06:29:22.019Z,76.75
2022-11-13T06:31:48.424Z,76.50
2022-11-13T06:34:14.854Z,76.04
2022-11-13T06:36:41.328Z,76.95
2022-11-13T06:39:07.837Z,76.74
2022-11-13T06:41:34.305Z,76.43
2022-11-13T06:44:03.085Z,77.45
2022-11-13T06:46:29.855Z,76.61
2022-11-13T06:48:56.259Z,76.84
2022-11-13T06:51:22.683Z,76.63
2022-11-13T06:53:50.244Z,76.16
2022-11-13T06:56:16.652Z,75.56
2022-11-13T06:58:43.106Z,75.48
2022-11-13T07:01:09.575Z,75.80
2022-11-13T07:03:36.038Z,75.54
2022-11-13T07:06:02.478Z,75.80
2022-11-13T07:08:29.333Z,76.39
2022-11-13T07:10:56.004Z,76.21
2022-11-13T07:13:22.430Z,76.86
2022-11-13T07:15:48.843Z,77.36
2022-11-13T07:18:18.033Z,76.63
2022-11-13T07:20:46.606Z,76.72
2022-11-13T07:23:13.024Z,76.30
2022-11-13T07:25:39.405Z,76.73
2022-11-13T07:28:05.819Z,76.81
2022-11-13T07:30:32.239Z,76.47
2022-11-13T07:32:58.637Z,76.73
2022-11-13T07:35:25.157Z,76.62
2022-11-13T07:37:51.559Z,76.16
2022-11-13T07:40:17.982Z,76.27
2022-11-13T07:42:44.386Z,76.33
2022-11-13T07:45:10.772Z,76.19
2022-11-13T07:47:37.194Z,76.25
2022-11-13T07:50:08.385Z,76.26
2022-11-13T07:52:37.232Z,75.34
2022-11-13T07:55:03.651Z,76.13
2022-11-13T07:57:30.084Z,75.90
2022-11-13T07:59:56.534Z,75.92
2022-11-13T08:02:26.494Z,75.56
2022-11-13T08:04:53.348Z,74.77
2022-11-13T08:07:19.809Z,75.44
2022-11-13T08:09:46.290Z,74.93
2022-11-13T08:12:12.706Z,75.32
2022-11-13T08:14:39.106Z,75.64
2022-11-13T08:17:05.719Z,75.29
2022-11-13T08:19:32.331Z,75.85
2022-11-13T08:21:58.749Z,75.87
2022-11-13T08:24:25.158Z,75.85
2022-11-13T08:26:51.590Z,75.58
2022-11-13T08:29:18.042Z,75.41
2022-11-13T08:31:44.468Z,75.30
2022-11-13T08:34:10.864Z,75.67
2022-11-13T08:36:37.303Z,75.15
2022-11-13T08:39:03.716Z,75.38
2022-11-13T08:41:30.131Z,75.31
2022-11-13T08:43:56.697Z,75.69
2022-11-13T08:46:23.138Z,75.34
2022-11-13T08:48:49.554Z,75.29
2022-11-13T08:51:16.001Z,75.44
2022-11-13T08:53:42.418Z,75.02
2022-11-13T08:56:08.870Z,75.70
2022-11-13T08:58:35.316Z,75.93
2022-11-13T09:01:01.757Z,75.21
2022-11-13T09:03:28.200Z,75.44
2022-11-13T09:05:54.602Z,74.57
2022-11-13T09:08:21.029Z,75.46
2022-11-13T09:10:47.404Z,75.68
2022-11-13T09:13:13.913Z,75.35
2022-11-13T09:15:40.322Z,74.92
2022-11-13T09:18:06.749Z,74.59
2022-11-13T09:20:33.178Z,74.81
2022-11-13T09:22:59.599Z,74.50
2022-11-13T09:25:26.021Z,75.06
2022-11-13T09:27:52.455Z,74.34
2022-11-13T09:30:18.885Z,74.42
2022-11-13T09:32:45.311Z,74.14
2022-11-13T09:35:11.772Z,74.21
2022-11-13T09:37:38.240Z,74.72
2022-11-13T09:40:04.687Z,73.96
2022-11-13T09:42:31.117Z,73.94
2022-11-13T09:44:57.536Z,73.53
2022-11-13T09:47:23.964Z,73.76
2022-11-13T09:49:50.386Z,73.67
2022-11-13T09:52:16.842Z,73.16
2022-11-13T09:54:43.254Z,72.13
2022-11-13T09:57:09.735Z,72.38
2022-11-13T09:59:36.147Z,73.06
2022-11-13T10:02:02.559Z,73.26
2022-11-13T10:04:29.000Z,73.16
2022-11-13T10:06:55.476Z,73.74
2022-11-13T10:09:21.939Z,74.31
2022-11-13T10:11:48.330Z,74.80
2022-11-13T10:14:14.738Z,74.37
2022-11-13T10:16:41.134Z,74.28
2022-11-13T10:19:07.571Z,74.84
2022-11-13T10:21:34.012Z,74.76
2022-11-13T10:24:00.479Z,75.34
2022-11-13T10:26:26.920Z,75.70
2022-11-13T10:28:53.411Z,75.67
2022-11-13T10:31:19.871Z,76.25
2022-11-13T10:33:46.422Z,76.09
2022-11-13T10:36:12.999Z,76.03
2022-11-13T10:38:39.600Z,76.02
2022-11-13T10:41:06.173Z,76.57
2022-11-13T10:43:33.027Z,76.15
2022-11-13T10:45:59.536Z,76.69
2022-11-13T10:48:26.147Z,76.46
2022-11-13T10:50:52.818Z,76.67
2022-11-13T10:53:20.182Z,76.42
2022-11-13T10:55:46.753Z,76.19
2022-11-13T10:58:13.354Z,75.66
2022-11-13T11:00:39.959Z,75.45
2022-11-13T11:03:06.489Z,75.20
2022-11-13T11:05:32.898Z,75.13
2022-11-13T11:07:59.368Z,75.02
2022-11-13T11:10:25.781Z,75.22
2022-11-13T11:12:52.185Z,75.26
2022-11-13T11:15:18.578Z,74.99
2022-11-13T11:17:44.989Z,74.76
2022-11-13T11:20:11.401Z,74.52
2022-11-13T11:22:38.348Z,74.59
2022-11-13T11:25:04.928Z,74.17
2022-11-13T11:27:31.345Z,74.27
2022-11-13T11:29:57.772Z,74.38
2022-11-13T11:32:24.198Z,74.11
2022-11-13T11:34:54.930Z,74.17
2022-11-13T11:37:24.331Z,74.15
2022-11-13T11:39:50.749Z,75.01
2022-11-13T11:42:17.165Z,74.51
2022-11-13T11:44:43.656Z,75.32
2022-11-13T11:47:10.077Z,75.13
2022-11-13T11:49:36.495Z,75.03
2022-11-13T11:52:02.923Z,75.01
2022-11-13T11:54:29.339Z,75.27
2022-11-13T11:56:55.763Z,75.48
2022-11-13T11:59:23.234Z,75.25
2022-11-13T12:01:49.683Z,75.31
2022-11-13T12:04:16.078Z,75.37
2022-11-13T12:06:42.552Z,75.34
2022-11-13T12:09:09.024Z,74.73
2022-11-13T12:11:35.440Z,74.52
2022-11-13T12:14:01.856Z,73.73
2022-11-13T12:16:28.305Z,73.88
2022-11-13T12:18:54.704Z,74.35
2022-11-13T12:21:21.193Z,74.14
2022-11-13T12:23:47.586Z,72.84
2022-11-13T12:26:14.024Z,73.95
2022-11-13T12:28:41.265Z,73.70
2022-11-13T12:31:07.844Z,73.69
2022-11-13T12:33:34.246Z,73.87
2022-11-13T12:36:00.675Z,73.49
2022-11-13T12:38:27.462Z,73.21
2022-11-13T12:40:54.232Z,72.96
2022-11-13T12:43:20.658Z,73.36
2022-11-13T12:45:47.057Z,72.95
2022-11-13T12:48:13.487Z,73.37
2022-11-13T12:50:39.907Z,72.52
2022-11-13T12:53:06.328Z,72.47
2022-11-13T12:55:32.758Z,72.48
2022-11-13T12:57:59.264Z,72.75
2022-11-13T13:00:25.696Z,72.48
2022-11-13T13:02:52.100Z,72.20
2022-11-13T13:05:18.506Z,71.99
2022-11-13T13:07:44.920Z,72.40
2022-11-13T13:10:11.376Z,72.10
2022-11-13T13:12:37.778Z,72.16
2022-11-13T13:15:04.215Z,72.53
2022-11-13T13:17:30.624Z,72.29
2022-11-13T13:19:57.084Z,72.01
2022-11-13T13:22:23.492Z,72.57
2022-11-13T13:24:50.009Z,72.25
2022-11-13T13:27:16.463Z,71.78
2022-11-13T13:29:42.881Z,71.51
2022-11-13T13:32:12.871Z,71.76
2022-11-13T13:34:41.016Z,71.94
2022-11-13T13:37:07.410Z,72.15
2022-11-13T13:39:33.858Z,72.50
2022-11-13T13:42:00.270Z,72.59
2022-11-13T13:44:26.701Z,72.44
2022-11-13T13:46:53.135Z,72.72
2022-11-13T13:49:19.569Z,72.37
2022-11-13T13:51:45.990Z,72.35
2022-11-13T13:54:12.422Z,72.53
2022-11-13T13:56:38.876Z,72.42
2022-11-13T13:59:05.398Z,72.67
2022-11-13T14:01:31.959Z,72.58
2022-11-13T14:03:58.431Z,71.99
2022-11-13T14:06:24.864Z,72.03
2022-11-13T14:08:51.318Z,72.11
2022-11-13T14:11:17.738Z,71.91
2022-11-13T14:13:44.189Z,71.22
2022-11-13T14:16:10.620Z,70.72
2022-11-13T14:18:37.029Z,71.96
2022-11-13T14:21:03.447Z,72.05
2022-11-13T14:23:29.850Z,72.33
2022-11-13T14:25:56.346Z,72.37
2022-11-13T14:28:22.746Z,72.12
2022-11-13T14:30:49.175Z,71.27
2022-11-13T14:33:15.563Z,72.25
2022-11-13T14:35:41.977Z,72.56
2022-11-13T14:38:08.444Z,72.52
2022-11-13T14:40:34.856Z,72.92
2022-11-13T14:43:01.367Z,72.63
2022-11-13T14:45:27.784Z,72.44
2022-11-13T14:47:54.224Z,72.65
2022-11-13T14:50:20.651Z,72.35
2022-11-13T14:52:47.140Z,72.51
2022-11-13T14:55:15.617Z,72.44
2022-11-13T14:57:42.423Z,72.57
2022-11-13T15:00:08.847Z,72.29
2022-11-13T15:02:35.292Z,72.35
2022-11-13T15:05:01.735Z,72.75
2022-11-13T15:07:28.167Z,72.27
2022-11-13T15:09:54.616Z,71.57
2022-11-13T15:12:21.089Z,71.62
2022-11-13T15:14:48.780Z,72.43
2022-11-13T15:17:15.191Z,72.13
2022-11-13T15:19:41.828Z,72.78
2022-11-13T15:24:54.707Z,72.70
2022-11-13T15:27:21.104Z,72.62
2022-11-13T15:29:47.540Z,72.46
2022-11-13T15:32:13.936Z,72.60
2022-11-13T15:34:40.348Z,72.75
2022-11-13T15:37:06.774Z,72.98
2022-11-13T15:39:33.169Z,72.69
2022-11-13T15:41:59.596Z,72.74
2022-11-13T15:44:26.012Z,72.87
2022-11-13T15:46:52.457Z,72.94
2022-11-13T15:49:18.883Z,72.60
2022-11-13T15:51:45.322Z,72.87
2022-11-13T15:54:11.738Z,73.36
2022-11-13T15:56:38.151Z,73.26
2022-11-13T15:59:04.572Z,73.26
2022-11-13T16:01:31.058Z,73.48
2022-11-13T16:03:57.544Z,73.20
2022-11-13T16:06:23.973Z,72.99
2022-11-13T16:08:50.483Z,73.07
2022-11-13T16:11:16.895Z,73.34
2022-11-13T16:13:43.298Z,73.59
2022-11-13T16:16:09.722Z,73.50
2022-11-13T16:18:36.123Z,73.77
2022-11-13T16:21:02.543Z,73.39
2022-11-13T16:23:29.331Z,73.53
2022-11-13T16:25:55.899Z,73.70
2022-11-13T16:28:22.335Z,73.96
2022-11-13T16:30:48.789Z,73.84
2022-11-13T16:33:15.199Z,73.97
2022-11-13T16:35:41.596Z,73.75
2022-11-13T16:38:08.078Z,73.91
2022-11-13T16:40:34.485Z,74.15
2022-11-13T16:43:00.897Z,73.92
2022-11-13T16:45:27.307Z,73.88
2022-11-13T16:47:53.706Z,73.96
2022-11-13T16:50:20.156Z,73.71
2022-11-13T16:52:46.584Z,73.99
2022-11-13T16:55:13.003Z,73.84
2022-11-13T16:57:39.426Z,73.94
2022-11-13T17:00:05.881Z,74.27
2022-11-13T17:02:32.632Z,74.22
2022-11-13T17:04:59.237Z,74.14
2022-11-13T17:07:25.864Z,73.90
2022-11-13T17:10:16.586Z,73.78
2022-11-13T17:12:40.102Z,73.23
2022-11-13T17:15:06.529Z,73.25
2022-11-13T17:17:32.935Z,72.93
2022-11-13T17:19:59.464Z,73.00
2022-11-13T17:22:26.467Z,73.31
2022-11-13T17:24:52.889Z,73.27
2022-11-13T17:27:19.305Z,73.53
2022-11-13T17:29:45.736Z,73.92
2022-11-13T17:32:12.157Z,74.18
2022-11-13T17:34:38.574Z,74.24
2022-11-13T17:37:04.999Z,74.02
2022-11-13T17:39:31.426Z,74.31
2022-11-13T17:41:58.203Z,74.31
2022-11-13T17:44:24.804Z,74.37
2022-11-13T17:46:51.207Z,74.39
2022-11-13T17:49:17.627Z,73.90
2022-11-13T17:51:44.061Z,74.65
2022-11-13T17:54:10.449Z,74.69
2022-11-13T17:56:36.873Z,74.53
2022-11-13T17:59:03.269Z,74.36
2022-11-13T18:01:29.732Z,74.42
2022-11-13T18:03:56.153Z,74.59
2022-11-13T18:06:22.576Z,74.65
2022-11-13T18:08:48.997Z,74.61
2022-11-13T18:11:15.417Z,75.06
2022-11-13T18:13:41.853Z,75.58
2022-11-13T18:16:08.265Z,75.76
2022-11-13T18:18:34.673Z,75.77
2022-11-13T18:21:09.731Z,75.47
2022-11-13T18:23:45.444Z,75.25
2022-11-13T18:26:11.885Z,75.32
2022-11-13T18:28:38.353Z,74.85
2022-11-13T18:31:04.956Z,75.37
2022-11-13T18:33:31.559Z,75.52
2022-11-13T18:35:58.089Z,75.61
2022-11-13T18:38:24.544Z,75.77
2022-11-13T18:40:50.950Z,75.55
2022-11-13T18:43:17.336Z,75.22
2022-11-13T18:45:43.761Z,75.24
2022-11-13T18:48:10.191Z,74.94
2022-11-13T18:50:36.623Z,75.04
2022-11-13T18:53:03.032Z,74.40
2022-11-13T18:55:29.454Z,74.13
2022-11-13T18:57:55.923Z,74.33
2022-11-13T19:00:22.328Z,74.54
2022-11-13T19:02:48.776Z,75.14
2022-11-13T19:05:15.201Z,75.87
2022-11-13T19:07:41.649Z,75.84
2022-11-13T19:10:08.094Z,76.22
2022-11-13T19:12:34.519Z,76.31
2022-11-13T19:15:01.003Z,76.18
2022-11-13T19:17:27.434Z,76.27
2022-11-13T19:19:53.889Z,75.87
2022-11-13T19:22:20.314Z,76.21
2022-11-13T19:24:46.747Z,76.31
2022-11-13T19:27:13.301Z,75.86
2022-11-13T19:29:39.738Z,76.01
2022-11-13T19:32:06.171Z,76.19
2022-11-13T19:34:32.681Z,75.90
2022-11-13T19:36:59.111Z,76.05
2022-11-13T19:39:25.541Z,75.52
2022-11-13T19:41:51.959Z,75.57
2022-11-13T19:44:18.405Z,75.39
2022-11-13T19:46:44.857Z,75.06
2022-11-13T19:49:11.281Z,75.18
2022-11-13T19:51:37.696Z,75.46
2022-11-13T19:54:04.131Z,75.22
2022-11-13T19:56:30.525Z,75.64
2022-11-13T19:58:56.936Z,75.09
2022-11-13T20:01:23.436Z,75.34
2022-11-13T20:03:49.914Z,75.47
2022-11-13T20:06:16.333Z,75.86
2022-11-13T20:08:42.743Z,75.70
2022-11-13T20:11:09.153Z,76.13
2022-11-13T20:13:35.571Z,75.53
2022-11-13T20:16:01.985Z,75.28
2022-11-13T20:18:28.693Z,75.16
2022-11-13T20:20:55.305Z,75.31
2022-11-13T20:23:21.753Z,75.32
2022-11-13T20:25:48.250Z,75.16
2022-11-13T20:28:14.660Z,75.58
2022-11-13T20:30:41.114Z,75.54
2022-11-13T20:33:07.582Z,75.67
2022-11-13T20:35:33.986Z,75.36
2022-11-13T20:38:00.452Z,75.60
2022-11-13T20:40:27.502Z,75.44
2022-11-13T20:42:54.084Z,75.55
2022-11-13T20:45:21.706Z,75.60
2022-11-13T20:47:48.266Z,75.80
2022-11-13T20:50:14.886Z,75.03
2022-11-13T20:52:42.503Z,74.74
2022-11-13T20:55:10.093Z,74.94
2022-11-13T20:57:40.869Z,74.88
2022-11-13T21:00:08.295Z,74.85
2022-11-13T21:02:35.862Z,75.22
2022-11-13T21:05:02.467Z,75.44
2022-11-13T21:07:29.073Z,75.75
2022-11-13T21:09:56.652Z,76.28
2022-11-13T21:12:23.228Z,76.34
2022-11-13T21:14:49.832Z,76.44
2022-11-13T21:17:17.429Z,76.48
2022-11-13T21:19:44.025Z,76.72
2022-11-13T21:22:10.615Z,76.76
2022-11-13T21:24:38.232Z,76.46
2022-11-13T21:27:05.813Z,76.82
2022-11-13T21:29:33.424Z,76.18
2022-11-13T21:32:00.031Z,76.60
2022-11-13T21:34:26.596Z,76.38
2022-11-13T21:36:53.038Z,76.06
2022-11-13T21:39:19.803Z,76.34
2022-11-13T21:41:47.436Z,76.24
2022-11-13T21:44:14.967Z,75.96
2022-11-13T21:46:43.572Z,75.67
2022-11-13T21:49:12.172Z,75.92
2022-11-13T21:51:39.762Z,75.96
2022-11-13T21:54:07.347Z,75.53
2022-11-13T21:56:33.957Z,75.19
2022-11-13T21:59:01.528Z,75.18
2022-11-13T22:01:29.041Z,74.79
2022-11-13T22:03:58.729Z,74.94
2022-11-13T22:06:25.339Z,75.52
2022-11-13T22:08:52.936Z,75.36
2022-11-13T22:11:20.518Z,75.33
2022-11-13T22:13:47.078Z,75.28
2022-11-13T22:16:13.541Z,75.48
2022-11-13T22:18:39.989Z,75.25
2022-11-13T22:21:07.007Z,75.71
2022-11-13T22:23:33.607Z,75.82
2022-11-13T22:26:01.179Z,76.64
2022-11-13T22:28:28.983Z,77.30
2022-11-13T22:30:56.387Z,77.03
2022-11-13T22:33:22.998Z,77.13
2022-11-13T22:35:50.575Z,77.53
2022-11-13T22:38:18.171Z,77.47
2022-11-13T22:40:46.791Z,77.41
2022-11-13T22:43:14.393Z,77.08
2022-11-13T22:45:41.975Z,77.31
2022-11-13T22:48:09.571Z,76.86
2022-11-13T22:50:37.166Z,76.93
2022-11-13T22:53:04.767Z,76.94
2022-11-13T22:55:32.392Z,76.84
2022-11-13T22:57:59.954Z,76.22
2022-11-13T23:00:28.566Z,76.47
2022-11-13T23:02:56.167Z,76.36
2022-11-13T23:05:23.752Z,76.63
2022-11-13T23:07:51.337Z,76.56
2022-11-13T23:10:18.917Z,76.74
2022-11-13T23:12:46.527Z,75.92
2022-11-13T23:15:14.121Z,75.52
2022-11-13T23:17:41.698Z,75.80
2022-11-13T23:20:10.293Z,76.07
2022-11-13T23:22:36.879Z,76.16
2022-11-13T23:25:03.768Z,75.99
2022-11-13T23:27:30.265Z,75.78
2022-11-13T23:29:58.729Z,76.30
2022-11-13T23:32:26.248Z,76.59
2022-11-13T23:34:59.530Z,76.28
2022-11-13T23:37:27.474Z,75.97
2022-11-13T23:39:55.041Z,76.05
2022-11-13T23:42:45.657Z,76.04
2022-11-13T23:45:10.339Z,76.31
2022-11-13T23:47:36.934Z,75.95
2022-11-13T23:50:03.550Z,75.80
2022-11-13T23:52:31.126Z,75.70
2022-11-13T23:54:58.727Z,76.11
2022-11-13T23:57:26.343Z,76.23
2022-11-13T23:59:53.919Z,75.89
